sensor_id;sensor_type;location;lat;lon;timestamp;temperature;humidity
41116;DHT22;26861;51.824;4.682;2024-01-11T00:00:25;11.10;59.60
41116;DHT22;26861;51.824;4.682;2024-01-11T00:02:50;11.10;59.20
41116;DHT22;26861;51.824;4.682;2024-01-11T00:05:16;11.10;58.90
41116;DHT22;26861;51.824;4.682;2024-01-11T00:07:41;11.00;59.50
41116;DHT22;26861;51.824;4.682;2024-01-11T00:10:07;11.40;59.80
41116;DHT22;26861;51.824;4.682;2024-01-11T00:12:32;11.10;58.70
41116;DHT22;26861;51.824;4.682;2024-01-11T00:14:58;11.10;59.50
41116;DHT22;26861;51.824;4.682;2024-01-11T00:17:24;11.10;59.50
41116;DHT22;26861;51.824;4.682;2024-01-11T00:19:50;11.20;59.50
41116;DHT22;26861;51.824;4.682;2024-01-11T00:22:16;11.00;59.50
41116;DHT22;26861;51.824;4.682;2024-01-11T00:24:41;11.00;59.40
41116;DHT22;26861;51.824;4.682;2024-01-11T00:27:07;11.00;59.40
41116;DHT22;26861;51.824;4.682;2024-01-11T00:29:32;11.30;59.80
41116;DHT22;26861;51.824;4.682;2024-01-11T00:31:58;11.10;59.50
41116;DHT22;26861;51.824;4.682;2024-01-11T00:34:23;11.20;59.60
41116;DHT22;26861;51.824;4.682;2024-01-11T00:36:49;11.00;59.20
41116;DHT22;26861;51.824;4.682;2024-01-11T00:39:15;11.00;59.30
41116;DHT22;26861;51.824;4.682;2024-01-11T00:41:41;11.10;59.40
41116;DHT22;26861;51.824;4.682;2024-01-11T00:44:06;11.00;59.40
41116;DHT22;26861;51.824;4.682;2024-01-11T00:46:33;11.20;59.40
41116;DHT22;26861;51.824;4.682;2024-01-11T00:48:58;11.00;59.80
41116;DHT22;26861;51.824;4.682;2024-01-11T00:51:24;11.10;59.90
41116;DHT22;26861;51.824;4.682;2024-01-11T00:53:49;10.90;59.90
41116;DHT22;26861;51.824;4.682;2024-01-11T00:56:18;10.90;60.00
41116;DHT22;26861;51.824;4.682;2024-01-11T00:58:44;10.90;60.10
41116;DHT22;26861;51.824;4.682;2024-01-11T01:01:09;10.80;59.70
41116;DHT22;26861;51.824;4.682;2024-01-11T01:03:35;10.90;60.30
41116;DHT22;26861;51.824;4.682;2024-01-11T01:06:00;11.00;60.20
41116;DHT22;26861;51.824;4.682;2024-01-11T01:08:27;10.90;60.10
41116;DHT22;26861;51.824;4.682;2024-01-11T01:10:52;11.10;60.20
41116;DHT22;26861;51.824;4.682;2024-01-11T01:13:18;11.00;60.10
41116;DHT22;26861;51.824;4.682;2024-01-11T01:15:43;11.20;60.20
41116;DHT22;26861;51.824;4.682;2024-01-11T01:18:09;10.90;59.90
41116;DHT22;26861;51.824;4.682;2024-01-11T01:20:34;10.90;60.10
41116;DHT22;26861;51.824;4.682;2024-01-11T01:22:59;11.20;60.20
41116;DHT22;26861;51.824;4.682;2024-01-11T01:25:25;11.10;60.10
41116;DHT22;26861;51.824;4.682;2024-01-11T01:27:51;10.80;60.00
41116;DHT22;26861;51.824;4.682;2024-01-11T01:30:16;11.00;60.00
41116;DHT22;26861;51.824;4.682;2024-01-11T01:32:42;10.90;60.00
41116;DHT22;26861;51.824;4.682;2024-01-11T01:35:07;10.90;60.00
41116;DHT22;26861;51.824;4.682;2024-01-11T01:37:33;10.80;59.00
41116;DHT22;26861;51.824;4.682;2024-01-11T01:39:58;10.90;60.00
41116;DHT22;26861;51.824;4.682;2024-01-11T01:42:24;10.80;59.90
41116;DHT22;26861;51.824;4.682;2024-01-11T01:44:49;10.90;60.30
41116;DHT22;26861;51.824;4.682;2024-01-11T01:47:15;10.80;59.90
41116;DHT22;26861;51.824;4.682;2024-01-11T01:49:41;10.80;59.30
41116;DHT22;26861;51.824;4.682;2024-01-11T01:52:08;11.10;60.30
41116;DHT22;26861;51.824;4.682;2024-01-11T01:54:33;10.80;59.90
41116;DHT22;26861;51.824;4.682;2024-01-11T01:56:59;11.10;59.90
41116;DHT22;26861;51.824;4.682;2024-01-11T01:59:24;10.80;59.90
41116;DHT22;26861;51.824;4.682;2024-01-11T02:01:50;10.80;59.70
41116;DHT22;26861;51.824;4.682;2024-01-11T02:04:16;10.80;60.00
41116;DHT22;26861;51.824;4.682;2024-01-11T02:06:43;11.10;60.00
41116;DHT22;26861;51.824;4.682;2024-01-11T02:09:09;11.40;60.30
41116;DHT22;26861;51.824;4.682;2024-01-11T02:11:36;11.00;60.00
41116;DHT22;26861;51.824;4.682;2024-01-11T02:14:02;10.70;59.80
41116;DHT22;26861;51.824;4.682;2024-01-11T02:16:28;10.80;59.40
41116;DHT22;26861;51.824;4.682;2024-01-11T02:18:53;10.70;59.50
41116;DHT22;26861;51.824;4.682;2024-01-11T02:21:19;10.70;59.60
41116;DHT22;26861;51.824;4.682;2024-01-11T02:23:55;10.80;60.10
41116;DHT22;26861;51.824;4.682;2024-01-11T02:26:20;10.70;55.10
41116;DHT22;26861;51.824;4.682;2024-01-11T02:28:47;10.80;59.70
41116;DHT22;26861;51.824;4.682;2024-01-11T02:31:13;11.00;60.00
41116;DHT22;26861;51.824;4.682;2024-01-11T02:33:39;10.70;59.90
41116;DHT22;26861;51.824;4.682;2024-01-11T02:36:05;10.80;59.70
41116;DHT22;26861;51.824;4.682;2024-01-11T02:38:31;10.70;58.90
41116;DHT22;26861;51.824;4.682;2024-01-11T02:40:59;10.70;59.90
41116;DHT22;26861;51.824;4.682;2024-01-11T02:43:24;10.70;59.70
41116;DHT22;26861;51.824;4.682;2024-01-11T02:45:50;10.70;59.60
41116;DHT22;26861;51.824;4.682;2024-01-11T02:48:15;10.70;59.60
41116;DHT22;26861;51.824;4.682;2024-01-11T02:50:41;11.30;59.90
41116;DHT22;26861;51.824;4.682;2024-01-11T02:53:06;10.90;59.20
41116;DHT22;26861;51.824;4.682;2024-01-11T02:55:32;10.90;59.60
41116;DHT22;26861;51.824;4.682;2024-01-11T02:57:57;10.70;59.80
41116;DHT22;26861;51.824;4.682;2024-01-11T03:00:23;10.70;59.60
41116;DHT22;26861;51.824;4.682;2024-01-11T03:02:48;10.60;59.00
41116;DHT22;26861;51.824;4.682;2024-01-11T03:05:14;11.10;59.90
41116;DHT22;26861;51.824;4.682;2024-01-11T03:07:39;10.70;59.70
41116;DHT22;26861;51.824;4.682;2024-01-11T03:10:05;11.00;59.50
41116;DHT22;26861;51.824;4.682;2024-01-11T03:12:30;10.60;58.40
41116;DHT22;26861;51.824;4.682;2024-01-11T03:14:56;11.40;59.80
41116;DHT22;26861;51.824;4.682;2024-01-11T03:17:21;11.30;59.80
41116;DHT22;26861;51.824;4.682;2024-01-11T03:19:47;11.30;59.80
41116;DHT22;26861;51.824;4.682;2024-01-11T03:22:13;10.60;59.30
41116;DHT22;26861;51.824;4.682;2024-01-11T03:24:38;10.50;59.40
41116;DHT22;26861;51.824;4.682;2024-01-11T03:27:06;11.20;59.50
41116;DHT22;26861;51.824;4.682;2024-01-11T03:29:32;10.80;59.50
41116;DHT22;26861;51.824;4.682;2024-01-11T03:31:58;10.60;59.40
41116;DHT22;26861;51.824;4.682;2024-01-11T03:34:23;10.50;59.50
41116;DHT22;26861;51.824;4.682;2024-01-11T03:36:49;10.90;59.90
41116;DHT22;26861;51.824;4.682;2024-01-11T03:39:14;11.10;59.50
41116;DHT22;26861;51.824;4.682;2024-01-11T03:41:43;11.30;59.70
41116;DHT22;26861;51.824;4.682;2024-01-11T03:44:09;10.60;59.20
41116;DHT22;26861;51.824;4.682;2024-01-11T03:46:34;10.70;59.50
41116;DHT22;26861;51.824;4.682;2024-01-11T03:49:00;11.20;59.80
41116;DHT22;26861;51.824;4.682;2024-01-11T03:51:26;10.60;59.40
41116;DHT22;26861;51.824;4.682;2024-01-11T03:53:51;10.40;59.40
41116;DHT22;26861;51.824;4.682;2024-01-11T03:56:17;11.20;59.80
41116;DHT22;26861;51.824;4.682;2024-01-11T03:58:43;11.20;59.90
41116;DHT22;26861;51.824;4.682;2024-01-11T04:01:10;10.50;59.00
41116;DHT22;26861;51.824;4.682;2024-01-11T04:03:36;11.10;59.70
41116;DHT22;26861;51.824;4.682;2024-01-11T04:06:02;11.00;59.60
41116;DHT22;26861;51.824;4.682;2024-01-11T04:08:28;10.40;58.90
41116;DHT22;26861;51.824;4.682;2024-01-11T04:10:54;11.00;59.70
41116;DHT22;26861;51.824;4.682;2024-01-11T04:13:19;10.40;59.40
41116;DHT22;26861;51.824;4.682;2024-01-11T04:15:45;10.40;59.50
41116;DHT22;26861;51.824;4.682;2024-01-11T04:18:10;10.40;59.30
41116;DHT22;26861;51.824;4.682;2024-01-11T04:20:36;10.40;59.30
41116;DHT22;26861;51.824;4.682;2024-01-11T04:23:01;10.60;59.80
41116;DHT22;26861;51.824;4.682;2024-01-11T04:25:27;10.40;59.50
41116;DHT22;26861;51.824;4.682;2024-01-11T04:27:52;10.60;59.70
41116;DHT22;26861;51.824;4.682;2024-01-11T04:30:18;10.50;59.70
41116;DHT22;26861;51.824;4.682;2024-01-11T04:32:43;11.00;60.00
41116;DHT22;26861;51.824;4.682;2024-01-11T04:35:09;11.00;60.10
41116;DHT22;26861;51.824;4.682;2024-01-11T04:37:35;10.90;60.00
41116;DHT22;26861;51.824;4.682;2024-01-11T04:40:01;10.90;61.00
41116;DHT22;26861;51.824;4.682;2024-01-11T04:42:27;11.00;60.30
41116;DHT22;26861;51.824;4.682;2024-01-11T04:44:52;10.90;60.40
41116;DHT22;26861;51.824;4.682;2024-01-11T04:47:18;10.80;60.30
41116;DHT22;26861;51.824;4.682;2024-01-11T04:49:43;10.70;60.10
41116;DHT22;26861;51.824;4.682;2024-01-11T04:52:09;10.90;60.30
41116;DHT22;26861;51.824;4.682;2024-01-11T04:54:34;10.30;60.10
41116;DHT22;26861;51.824;4.682;2024-01-11T04:57:00;10.90;60.60
41116;DHT22;26861;51.824;4.682;2024-01-11T04:59:25;10.90;60.30
41116;DHT22;26861;51.824;4.682;2024-01-11T05:01:51;10.10;59.60
41116;DHT22;26861;51.824;4.682;2024-01-11T05:04:16;11.10;60.70
41116;DHT22;26861;51.824;4.682;2024-01-11T05:06:41;10.60;60.20
41116;DHT22;26861;51.824;4.682;2024-01-11T05:09:07;10.60;60.10
41116;DHT22;26861;51.824;4.682;2024-01-11T05:11:33;10.70;60.20
41116;DHT22;26861;51.824;4.682;2024-01-11T05:13:58;11.00;60.40
41116;DHT22;26861;51.824;4.682;2024-01-11T05:16:25;10.80;60.30
41116;DHT22;26861;51.824;4.682;2024-01-11T05:18:50;10.40;60.00
41116;DHT22;26861;51.824;4.682;2024-01-11T05:21:16;10.30;59.90
41116;DHT22;26861;51.824;4.682;2024-01-11T05:23:42;10.30;59.80
41116;DHT22;26861;51.824;4.682;2024-01-11T05:26:09;11.00;60.00
41116;DHT22;26861;51.824;4.682;2024-01-11T05:28:35;11.10;60.10
41116;DHT22;26861;51.824;4.682;2024-01-11T05:31:01;10.60;59.80
41116;DHT22;26861;51.824;4.682;2024-01-11T05:33:26;10.30;59.40
41116;DHT22;26861;51.824;4.682;2024-01-11T05:35:52;10.90;60.00
41116;DHT22;26861;51.824;4.682;2024-01-11T05:38:19;10.40;59.80
41116;DHT22;26861;51.824;4.682;2024-01-11T05:40:44;11.00;59.90
41116;DHT22;26861;51.824;4.682;2024-01-11T05:43:10;11.00;60.10
41116;DHT22;26861;51.824;4.682;2024-01-11T05:45:35;10.90;60.00
41116;DHT22;26861;51.824;4.682;2024-01-11T05:48:01;10.80;60.00
41116;DHT22;26861;51.824;4.682;2024-01-11T05:50:26;10.70;59.90
41116;DHT22;26861;51.824;4.682;2024-01-11T05:52:52;10.30;59.90
41116;DHT22;26861;51.824;4.682;2024-01-11T05:55:19;10.80;59.90
41116;DHT22;26861;51.824;4.682;2024-01-11T05:57:44;10.60;59.90
41116;DHT22;26861;51.824;4.682;2024-01-11T06:00:11;11.10;59.90
41116;DHT22;26861;51.824;4.682;2024-01-11T06:02:36;10.20;59.20
41116;DHT22;26861;51.824;4.682;2024-01-11T06:05:02;10.20;59.60
41116;DHT22;26861;51.824;4.682;2024-01-11T06:07:28;10.60;59.30
41116;DHT22;26861;51.824;4.682;2024-01-11T06:09:54;10.20;59.40
41116;DHT22;26861;51.824;4.682;2024-01-11T06:12:20;10.20;59.70
41116;DHT22;26861;51.824;4.682;2024-01-11T06:14:46;10.20;59.50
41116;DHT22;26861;51.824;4.682;2024-01-11T06:17:12;10.20;59.40
41116;DHT22;26861;51.824;4.682;2024-01-11T06:19:38;10.20;59.70
41116;DHT22;26861;51.824;4.682;2024-01-11T06:22:04;10.20;59.50
41116;DHT22;26861;51.824;4.682;2024-01-11T06:24:29;10.10;58.80
41116;DHT22;26861;51.824;4.682;2024-01-11T06:26:55;10.80;59.90
41116;DHT22;26861;51.824;4.682;2024-01-11T06:29:20;10.10;59.50
41116;DHT22;26861;51.824;4.682;2024-01-11T06:31:46;10.40;59.80
41116;DHT22;26861;51.824;4.682;2024-01-11T06:34:11;10.10;59.60
41116;DHT22;26861;51.824;4.682;2024-01-11T06:36:37;10.00;59.00
41116;DHT22;26861;51.824;4.682;2024-01-11T06:39:02;10.10;59.40
41116;DHT22;26861;51.824;4.682;2024-01-11T06:41:29;10.00;58.90
41116;DHT22;26861;51.824;4.682;2024-01-11T06:43:54;10.80;60.00
41116;DHT22;26861;51.824;4.682;2024-01-11T06:46:20;10.60;59.90
41116;DHT22;26861;51.824;4.682;2024-01-11T06:48:47;10.00;59.80
41116;DHT22;26861;51.824;4.682;2024-01-11T06:51:16;10.10;59.90
41116;DHT22;26861;51.824;4.682;2024-01-11T06:53:41;10.00;55.10
41116;DHT22;26861;51.824;4.682;2024-01-11T06:56:17;9.90;59.20
41116;DHT22;26861;51.824;4.682;2024-01-11T06:58:43;10.00;55.00
41116;DHT22;26861;51.824;4.682;2024-01-11T07:01:08;10.00;59.50
41116;DHT22;26861;51.824;4.682;2024-01-11T07:03:34;9.90;59.70
41116;DHT22;26861;51.824;4.682;2024-01-11T07:05:59;9.90;59.60
41116;DHT22;26861;51.824;4.682;2024-01-11T07:08:25;9.90;59.70
41116;DHT22;26861;51.824;4.682;2024-01-11T07:10:50;9.90;59.80
41116;DHT22;26861;51.824;4.682;2024-01-11T07:13:16;9.90;59.90
41116;DHT22;26861;51.824;4.682;2024-01-11T07:15:45;10.00;59.80
41116;DHT22;26861;51.824;4.682;2024-01-11T07:18:10;9.90;55.10
41116;DHT22;26861;51.824;4.682;2024-01-11T07:20:36;9.80;59.70
41116;DHT22;26861;51.824;4.682;2024-01-11T07:23:01;9.90;59.80
41116;DHT22;26861;51.824;4.682;2024-01-11T07:25:27;10.00;59.80
41116;DHT22;26861;51.824;4.682;2024-01-11T07:27:53;10.00;59.90
41116;DHT22;26861;51.824;4.682;2024-01-11T07:30:19;10.60;60.00
41116;DHT22;26861;51.824;4.682;2024-01-11T07:32:46;9.90;59.70
41116;DHT22;26861;51.824;4.682;2024-01-11T07:35:12;10.00;59.80
41116;DHT22;26861;51.824;4.682;2024-01-11T07:37:39;9.70;59.30
41116;DHT22;26861;51.824;4.682;2024-01-11T07:40:05;10.30;60.20
41116;DHT22;26861;51.824;4.682;2024-01-11T07:42:38;9.90;58.30
41116;DHT22;26861;51.824;4.682;2024-01-11T07:45:05;9.90;55.20
41116;DHT22;26861;51.824;4.682;2024-01-11T07:47:31;9.90;59.20
41116;DHT22;26861;51.824;4.682;2024-01-11T07:49:57;9.90;59.60
41116;DHT22;26861;51.824;4.682;2024-01-11T07:52:22;10.00;59.90
41116;DHT22;26861;51.824;4.682;2024-01-11T07:54:48;10.50;60.40
41116;DHT22;26861;51.824;4.682;2024-01-11T07:57:14;10.50;60.20
41116;DHT22;26861;51.824;4.682;2024-01-11T07:59:39;10.00;60.20
41116;DHT22;26861;51.824;4.682;2024-01-11T08:02:06;9.90;60.10
41116;DHT22;26861;51.824;4.682;2024-01-11T08:04:31;10.60;60.90
41116;DHT22;26861;51.824;4.682;2024-01-11T08:06:57;10.60;60.80
41116;DHT22;26861;51.824;4.682;2024-01-11T08:09:27;10.50;60.90
41116;DHT22;26861;51.824;4.682;2024-01-11T08:11:53;10.50;61.00
41116;DHT22;26861;51.824;4.682;2024-01-11T08:14:22;10.20;60.80
41116;DHT22;26861;51.824;4.682;2024-01-11T08:16:50;10.60;61.20
41116;DHT22;26861;51.824;4.682;2024-01-11T08:19:16;10.30;60.90
41116;DHT22;26861;51.824;4.682;2024-01-11T08:21:42;10.00;60.60
41116;DHT22;26861;51.824;4.682;2024-01-11T08:24:08;9.90;60.60
41116;DHT22;26861;51.824;4.682;2024-01-11T08:26:33;9.90;60.80
41116;DHT22;26861;51.824;4.682;2024-01-11T08:28:59;9.90;60.90
41116;DHT22;26861;51.824;4.682;2024-01-11T08:31:25;10.50;61.20
41116;DHT22;26861;51.824;4.682;2024-01-11T08:33:50;10.70;61.20
41116;DHT22;26861;51.824;4.682;2024-01-11T08:36:15;10.60;61.30
41116;DHT22;26861;51.824;4.682;2024-01-11T08:38:41;9.90;60.80
41116;DHT22;26861;51.824;4.682;2024-01-11T08:41:06;10.20;61.00
41116;DHT22;26861;51.824;4.682;2024-01-11T08:43:32;10.60;60.80
41116;DHT22;26861;51.824;4.682;2024-01-11T08:45:58;10.60;61.00
41116;DHT22;26861;51.824;4.682;2024-01-11T08:48:23;10.50;61.00
41116;DHT22;26861;51.824;4.682;2024-01-11T08:50:49;10.70;61.20
41116;DHT22;26861;51.824;4.682;2024-01-11T08:53:14;10.00;60.50
41116;DHT22;26861;51.824;4.682;2024-01-11T08:55:41;10.80;61.10
41116;DHT22;26861;51.824;4.682;2024-01-11T08:58:07;10.10;60.90
41116;DHT22;26861;51.824;4.682;2024-01-11T09:00:32;10.70;61.00
41116;DHT22;26861;51.824;4.682;2024-01-11T09:02:58;10.00;59.70
41116;DHT22;26861;51.824;4.682;2024-01-11T09:05:23;10.00;60.70
41116;DHT22;26861;51.824;4.682;2024-01-11T09:07:49;10.10;60.30
41116;DHT22;26861;51.824;4.682;2024-01-11T09:10:14;10.30;60.20
41116;DHT22;26861;51.824;4.682;2024-01-11T09:12:40;10.10;59.80
41116;DHT22;26861;51.824;4.682;2024-01-11T09:15:06;10.00;59.50
41116;DHT22;26861;51.824;4.682;2024-01-11T09:17:31;10.10;58.30
41116;DHT22;26861;51.824;4.682;2024-01-11T09:19:57;10.70;59.70
41116;DHT22;26861;51.824;4.682;2024-01-11T09:22:23;10.00;59.50
41116;DHT22;26861;51.824;4.682;2024-01-11T09:24:48;10.70;59.90
41116;DHT22;26861;51.824;4.682;2024-01-11T09:27:14;10.60;59.70
41116;DHT22;26861;51.824;4.682;2024-01-11T09:29:45;10.70;60.00
41116;DHT22;26861;51.824;4.682;2024-01-11T09:32:12;10.00;55.20
41116;DHT22;26861;51.824;4.682;2024-01-11T09:34:37;10.00;60.10
41116;DHT22;26861;51.824;4.682;2024-01-11T09:37:03;10.40;60.10
41116;DHT22;26861;51.824;4.682;2024-01-11T09:39:29;10.00;59.80
41116;DHT22;26861;51.824;4.682;2024-01-11T09:41:59;9.90;59.00
41116;DHT22;26861;51.824;4.682;2024-01-11T09:44:25;10.00;54.90
41116;DHT22;26861;51.824;4.682;2024-01-11T09:46:52;10.10;60.00
41116;DHT22;26861;51.824;4.682;2024-01-11T09:49:18;10.60;60.50
41116;DHT22;26861;51.824;4.682;2024-01-11T09:51:44;10.20;59.90
41116;DHT22;26861;51.824;4.682;2024-01-11T09:54:11;10.30;61.10
41116;DHT22;26861;51.824;4.682;2024-01-11T09:56:37;10.40;61.10
41116;DHT22;26861;51.824;4.682;2024-01-11T09:59:03;10.60;61.20
41116;DHT22;26861;51.824;4.682;2024-01-11T10:01:31;10.20;60.60
41116;DHT22;26861;51.824;4.682;2024-01-11T10:03:57;10.20;60.50
41116;DHT22;26861;51.824;4.682;2024-01-11T10:06:23;10.20;60.90
41116;DHT22;26861;51.824;4.682;2024-01-11T10:08:49;10.50;61.20
41116;DHT22;26861;51.824;4.682;2024-01-11T10:11:15;10.50;60.50
41116;DHT22;26861;51.824;4.682;2024-01-11T10:13:41;10.40;60.90
41116;DHT22;26861;51.824;4.682;2024-01-11T10:16:08;10.50;61.10
41116;DHT22;26861;51.824;4.682;2024-01-11T10:18:34;10.40;60.40
41116;DHT22;26861;51.824;4.682;2024-01-11T10:21:00;10.50;60.50
41116;DHT22;26861;51.824;4.682;2024-01-11T10:23:26;10.60;60.20
41116;DHT22;26861;51.824;4.682;2024-01-11T10:25:55;10.70;60.40
41116;DHT22;26861;51.824;4.682;2024-01-11T10:28:21;11.20;61.00
41116;DHT22;26861;51.824;4.682;2024-01-11T10:30:47;10.70;60.60
41116;DHT22;26861;51.824;4.682;2024-01-11T10:33:14;10.80;60.00
41116;DHT22;26861;51.824;4.682;2024-01-11T10:35:39;10.70;60.40
41116;DHT22;26861;51.824;4.682;2024-01-11T10:38:06;10.90;60.70
41116;DHT22;26861;51.824;4.682;2024-01-11T10:40:35;10.70;60.80
41116;DHT22;26861;51.824;4.682;2024-01-11T10:43:01;10.90;60.50
41116;DHT22;26861;51.824;4.682;2024-01-11T10:45:28;10.90;60.60
41116;DHT22;26861;51.824;4.682;2024-01-11T10:48:00;11.00;59.90
41116;DHT22;26861;51.824;4.682;2024-01-11T10:50:27;11.00;60.60
41116;DHT22;26861;51.824;4.682;2024-01-11T10:55:21;11.00;60.10
41116;DHT22;26861;51.824;4.682;2024-01-11T10:57:48;11.10;60.40
41116;DHT22;26861;51.824;4.682;2024-01-11T11:00:15;11.20;60.20
41116;DHT22;26861;51.824;4.682;2024-01-11T11:02:41;11.00;59.70
41116;DHT22;26861;51.824;4.682;2024-01-11T11:05:07;11.40;60.60
41116;DHT22;26861;51.824;4.682;2024-01-11T11:07:35;11.10;60.00
41116;DHT22;26861;51.824;4.682;2024-01-11T11:10:02;11.20;60.70
41116;DHT22;26861;51.824;4.682;2024-01-11T11:12:31;11.10;60.40
41116;DHT22;26861;51.824;4.682;2024-01-11T11:14:58;11.10;61.10
41116;DHT22;26861;51.824;4.682;2024-01-11T11:17:24;11.00;60.60
41116;DHT22;26861;51.824;4.682;2024-01-11T11:19:50;11.00;61.10
41116;DHT22;26861;51.824;4.682;2024-01-11T11:22:16;11.00;61.40
41116;DHT22;26861;51.824;4.682;2024-01-11T11:24:42;11.10;61.50
41116;DHT22;26861;51.824;4.682;2024-01-11T11:27:08;11.00;61.60
41116;DHT22;26861;51.824;4.682;2024-01-11T11:29:34;11.10;61.80
41116;DHT22;26861;51.824;4.682;2024-01-11T11:31:59;11.40;62.30
41116;DHT22;26861;51.824;4.682;2024-01-11T11:34:43;11.00;61.80
41116;DHT22;26861;51.824;4.682;2024-01-11T11:37:12;11.00;57.20
41116;DHT22;26861;51.824;4.682;2024-01-11T11:39:37;11.10;62.10
41116;DHT22;26861;51.824;4.682;2024-01-11T11:42:04;11.00;62.50
41116;DHT22;26861;51.824;4.682;2024-01-11T11:44:30;11.00;61.20
41116;DHT22;26861;51.824;4.682;2024-01-11T11:47:39;11.00;62.20
41116;DHT22;26861;51.824;4.682;2024-01-11T11:49:56;11.00;57.70
41116;DHT22;26861;51.824;4.682;2024-01-11T11:52:22;11.00;57.60
41116;DHT22;26861;51.824;4.682;2024-01-11T11:54:48;11.00;62.40
41116;DHT22;26861;51.824;4.682;2024-01-11T11:57:16;11.00;62.40
41116;DHT22;26861;51.824;4.682;2024-01-11T11:59:42;10.80;62.70
41116;DHT22;26861;51.824;4.682;2024-01-11T12:02:08;11.00;62.30
41116;DHT22;26861;51.824;4.682;2024-01-11T12:04:39;11.40;62.90
41116;DHT22;26861;51.824;4.682;2024-01-11T12:07:05;11.10;62.40
41116;DHT22;26861;51.824;4.682;2024-01-11T12:09:33;11.10;62.60
41116;DHT22;26861;51.824;4.682;2024-01-11T12:11:59;11.10;62.80
41116;DHT22;26861;51.824;4.682;2024-01-11T12:14:25;11.00;62.60
41116;DHT22;26861;51.824;4.682;2024-01-11T12:16:56;11.40;62.90
41116;DHT22;26861;51.824;4.682;2024-01-11T12:19:22;11.10;58.00
41116;DHT22;26861;51.824;4.682;2024-01-11T12:21:49;11.00;62.80
41116;DHT22;26861;51.824;4.682;2024-01-11T12:24:15;10.90;62.10
41116;DHT22;26861;51.824;4.682;2024-01-11T12:26:41;11.10;63.10
41116;DHT22;26861;51.824;4.682;2024-01-11T12:29:07;11.00;62.90
41116;DHT22;26861;51.824;4.682;2024-01-11T12:31:35;11.10;62.70
41116;DHT22;26861;51.824;4.682;2024-01-11T12:34:03;11.10;61.80
41116;DHT22;26861;51.824;4.682;2024-01-11T12:36:30;11.10;62.90
41116;DHT22;26861;51.824;4.682;2024-01-11T12:38:57;11.10;63.10
41116;DHT22;26861;51.824;4.682;2024-01-11T12:41:24;11.10;62.40
41116;DHT22;26861;51.824;4.682;2024-01-11T12:43:50;11.60;62.90
41116;DHT22;26861;51.824;4.682;2024-01-11T12:46:16;11.10;62.50
41116;DHT22;26861;51.824;4.682;2024-01-11T12:48:42;11.10;62.40
41116;DHT22;26861;51.824;4.682;2024-01-11T12:51:09;11.10;62.50
41116;DHT22;26861;51.824;4.682;2024-01-11T12:53:35;11.00;63.20
41116;DHT22;26861;51.824;4.682;2024-01-11T12:56:05;11.00;62.60
41116;DHT22;26861;51.824;4.682;2024-01-11T12:58:37;11.10;57.80
41116;DHT22;26861;51.824;4.682;2024-01-11T13:01:06;11.00;62.20
41116;DHT22;26861;51.824;4.682;2024-01-11T13:03:38;11.10;62.70
41116;DHT22;26861;51.824;4.682;2024-01-11T13:06:04;11.10;57.80
41116;DHT22;26861;51.824;4.682;2024-01-11T13:08:34;11.20;60.00
41116;DHT22;26861;51.824;4.682;2024-01-11T13:11:02;11.20;62.70
41116;DHT22;26861;51.824;4.682;2024-01-11T13:13:33;11.10;62.20
41116;DHT22;26861;51.824;4.682;2024-01-11T13:16:00;11.10;62.70
41116;DHT22;26861;51.824;4.682;2024-01-11T13:18:26;11.00;61.90
41116;DHT22;26861;51.824;4.682;2024-01-11T13:20:51;11.20;62.40
41116;DHT22;26861;51.824;4.682;2024-01-11T13:23:18;11.20;62.50
41116;DHT22;26861;51.824;4.682;2024-01-11T13:25:49;11.10;62.20
41116;DHT22;26861;51.824;4.682;2024-01-11T13:28:15;11.10;57.70
41116;DHT22;26861;51.824;4.682;2024-01-11T13:30:41;11.10;62.30
41116;DHT22;26861;51.824;4.682;2024-01-11T13:33:07;11.50;62.70
41116;DHT22;26861;51.824;4.682;2024-01-11T13:35:34;11.40;62.70
41116;DHT22;26861;51.824;4.682;2024-01-11T13:37:59;11.10;62.60
41116;DHT22;26861;51.824;4.682;2024-01-11T13:40:25;11.40;62.60
41116;DHT22;26861;51.824;4.682;2024-01-11T13:42:54;11.00;62.40
41116;DHT22;26861;51.824;4.682;2024-01-11T13:45:19;11.20;62.80
41116;DHT22;26861;51.824;4.682;2024-01-11T13:47:45;11.30;62.70
41116;DHT22;26861;51.824;4.682;2024-01-11T13:50:10;11.40;62.60
41116;DHT22;26861;51.824;4.682;2024-01-11T13:52:36;11.10;62.50
41116;DHT22;26861;51.824;4.682;2024-01-11T13:55:01;11.30;62.70
41116;DHT22;26861;51.824;4.682;2024-01-11T13:57:27;11.10;62.20
41116;DHT22;26861;51.824;4.682;2024-01-11T13:59:53;11.10;62.30
41116;DHT22;26861;51.824;4.682;2024-01-11T14:02:18;11.10;62.00
41116;DHT22;26861;51.824;4.682;2024-01-11T14:04:44;11.10;62.60
41116;DHT22;26861;51.824;4.682;2024-01-11T14:07:09;11.10;62.70
41116;DHT22;26861;51.824;4.682;2024-01-11T14:09:35;11.20;62.70
41116;DHT22;26861;51.824;4.682;2024-01-11T14:12:00;11.20;62.50
41116;DHT22;26861;51.824;4.682;2024-01-11T14:14:26;11.20;62.60
41116;DHT22;26861;51.824;4.682;2024-01-11T14:16:51;11.10;62.20
41116;DHT22;26861;51.824;4.682;2024-01-11T14:19:17;11.10;62.40
41116;DHT22;26861;51.824;4.682;2024-01-11T14:21:43;11.30;62.60
41116;DHT22;26861;51.824;4.682;2024-01-11T14:24:08;11.10;62.40
41116;DHT22;26861;51.824;4.682;2024-01-11T14:26:34;11.10;62.30
41116;DHT22;26861;51.824;4.682;2024-01-11T14:28:59;11.40;62.60
41116;DHT22;26861;51.824;4.682;2024-01-11T14:31:26;11.10;62.40
41116;DHT22;26861;51.824;4.682;2024-01-11T14:33:52;11.20;62.40
41116;DHT22;26861;51.824;4.682;2024-01-11T14:36:17;11.10;62.30
41116;DHT22;26861;51.824;4.682;2024-01-11T14:38:43;11.10;62.40
41116;DHT22;26861;51.824;4.682;2024-01-11T14:41:08;11.10;62.40
41116;DHT22;26861;51.824;4.682;2024-01-11T14:43:37;11.40;61.40
41116;DHT22;26861;51.824;4.682;2024-01-11T14:46:02;11.40;62.60
41116;DHT22;26861;51.824;4.682;2024-01-11T14:48:28;11.10;61.90
41116;DHT22;26861;51.824;4.682;2024-01-11T14:50:59;11.20;62.30
41116;DHT22;26861;51.824;4.682;2024-01-11T14:53:24;11.50;63.00
41116;DHT22;26861;51.824;4.682;2024-01-11T14:55:50;11.40;62.60
41116;DHT22;26861;51.824;4.682;2024-01-11T14:58:15;11.10;62.60
41116;DHT22;26861;51.824;4.682;2024-01-11T15:00:42;11.40;62.50
41116;DHT22;26861;51.824;4.682;2024-01-11T15:03:07;11.10;62.10
41116;DHT22;26861;51.824;4.682;2024-01-11T15:05:33;11.10;62.60
41116;DHT22;26861;51.824;4.682;2024-01-11T15:07:58;11.10;62.50
41116;DHT22;26861;51.824;4.682;2024-01-11T15:10:24;11.10;62.50
41116;DHT22;26861;51.824;4.682;2024-01-11T15:12:50;11.10;62.70
41116;DHT22;26861;51.824;4.682;2024-01-11T15:15:16;11.10;62.60
41116;DHT22;26861;51.824;4.682;2024-01-11T15:17:41;11.10;62.60
41116;DHT22;26861;51.824;4.682;2024-01-11T15:20:07;11.70;63.00
41116;DHT22;26861;51.824;4.682;2024-01-11T15:22:33;11.10;60.50
41116;DHT22;26861;51.824;4.682;2024-01-11T15:24:58;11.30;62.80
41116;DHT22;26861;51.824;4.682;2024-01-11T15:27:24;11.10;62.20